createdAt,value
2017-09-30T00:01:13.842Z,21.43
2017-09-30T00:03:41.356Z,19.63
2017-09-30T00:06:08.876Z,20.47
2017-09-30T00:08:36.437Z,20.97
2017-09-30T00:11:03.964Z,24.20
2017-09-30T00:13:32.231Z,19.67
2017-09-30T00:15:59.765Z,20.33
2017-09-30T00:18:27.281Z,21.93
2017-09-30T00:20:54.810Z,22.60
2017-09-30T00:23:23.072Z,21.27
2017-09-30T00:25:51.367Z,22.57
2017-09-30T00:28:19.629Z,22.33
2017-09-30T00:30:47.944Z,24.20
2017-09-30T00:33:15.452Z,21.33
2017-09-30T00:35:42.944Z,20.77
2017-09-30T00:38:10.459Z,20.90
2017-09-30T00:40:37.952Z,22.47
2017-09-30T00:43:05.493Z,22.27
2017-09-30T00:45:33.809Z,20.53
2017-09-30T00:48:01.312Z,22.30
2017-09-30T00:50:28.825Z,20.73
2017-09-30T00:52:56.328Z,20.53
2017-09-30T00:55:23.855Z,21.73
2017-09-30T00:57:51.348Z,21.43
2017-09-30T01:00:19.644Z,22.13
2017-09-30T01:02:47.158Z,21.53
2017-09-30T01:05:14.665Z,20.87
2017-09-30T01:07:42.254Z,20.70
2017-09-30T01:10:09.761Z,20.93
2017-09-30T01:12:38.025Z,21.50
2017-09-30T01:15:05.566Z,22.13
2017-09-30T01:17:33.084Z,22.00
2017-09-30T01:20:00.617Z,21.57
2017-09-30T01:22:28.879Z,20.57
2017-09-30T01:24:57.183Z,21.63
2017-09-30T01:27:24.702Z,21.13
2017-09-30T01:29:53.001Z,21.77
2017-09-30T01:32:21.283Z,22.07
2017-09-30T01:34:48.801Z,21.77
2017-09-30T01:37:16.319Z,21.43
2017-09-30T01:39:43.824Z,21.77
2017-09-30T01:42:11.340Z,22.00
2017-09-30T01:44:38.864Z,20.87
2017-09-30T01:47:07.151Z,21.50
2017-09-30T01:49:34.668Z,21.20
2017-09-30T01:52:02.962Z,20.60
2017-09-30T01:54:31.281Z,24.07
2017-09-30T01:56:58.784Z,24.63
2017-09-30T01:59:26.311Z,24.67
2017-09-30T02:01:53.812Z,26.53
2017-09-30T02:04:22.096Z,24.03
2017-09-30T02:06:50.373Z,24.00
2017-09-30T02:09:18.652Z,22.63
2017-09-30T02:11:46.956Z,24.83
2017-09-30T02:14:14.489Z,22.77
2017-09-30T02:16:41.987Z,22.50
2017-09-30T02:19:09.481Z,23.20
2017-09-30T02:21:37.777Z,24.27
2017-09-30T02:24:05.271Z,23.00
2017-09-30T02:26:32.796Z,25.73
2017-09-30T02:29:00.305Z,22.90
2017-09-30T02:31:27.801Z,24.60
2017-09-30T02:33:56.102Z,25.20
2017-09-30T02:36:23.600Z,25.07
2017-09-30T02:38:51.148Z,25.20
2017-09-30T02:41:18.644Z,25.97
2017-09-30T02:43:46.950Z,21.57
2017-09-30T02:46:14.451Z,24.73
2017-09-30T02:48:43.460Z,26.57
2017-09-30T02:51:11.749Z,23.97
2017-09-30T02:53:40.013Z,25.07
2017-09-30T02:56:08.305Z,25.10
2017-09-30T02:58:35.807Z,25.47
2017-09-30T03:01:03.320Z,26.27
2017-09-30T03:03:30.820Z,24.77
2017-09-30T03:05:58.335Z,25.10
2017-09-30T03:08:25.830Z,26.03
2017-09-30T03:10:53.403Z,25.43
2017-09-30T03:13:20.904Z,24.90
2017-09-30T03:15:49.287Z,24.27
2017-09-30T03:18:16.796Z,23.33
2017-09-30T03:20:44.289Z,24.83
2017-09-30T03:23:12.583Z,24.73
2017-09-30T03:25:40.101Z,23.03
2017-09-30T03:28:08.366Z,26.10
2017-09-30T03:30:35.892Z,18.83
2017-09-30T03:33:03.403Z,22.23
2017-09-30T03:35:31.679Z,25.90
2017-09-30T03:37:59.967Z,21.90
2017-09-30T03:40:28.224Z,23.93
2017-09-30T03:42:55.745Z,26.60
2017-09-30T03:45:23.243Z,25.43
2017-09-30T03:47:51.509Z,24.60
2017-09-30T03:50:19.030Z,25.77
2017-09-30T03:52:46.557Z,22.17
2017-09-30T03:55:14.112Z,24.23
2017-09-30T03:57:41.612Z,27.10
2017-09-30T04:00:09.123Z,26.00
2017-09-30T04:02:37.392Z,25.60
2017-09-30T04:05:05.676Z,21.87
2017-09-30T04:07:33.176Z,26.10
2017-09-30T04:10:01.276Z,25.57
2017-09-30T04:12:28.774Z,26.57
2017-09-30T04:14:56.268Z,26.10
2017-09-30T04:17:23.796Z,24.07
2017-09-30T04:19:51.292Z,24.63
2017-09-30T04:22:18.810Z,23.33
2017-09-30T04:24:46.313Z,22.50
2017-09-30T04:27:13.833Z,23.20
2017-09-30T04:29:41.346Z,23.63
2017-09-30T04:32:10.116Z,23.13
2017-09-30T04:34:37.609Z,24.50
2017-09-30T04:37:05.125Z,27.60
2017-09-30T04:39:32.647Z,27.87
2017-09-30T04:42:00.148Z,26.40
2017-09-30T04:44:29.171Z,24.27
2017-09-30T04:46:56.668Z,24.87
2017-09-30T04:49:24.212Z,23.27
2017-09-30T04:51:51.731Z,26.03
2017-09-30T04:54:20.006Z,25.80
2017-09-30T04:56:49.044Z,24.77
2017-09-30T04:59:16.548Z,26.13
2017-09-30T05:01:44.841Z,22.70
2017-09-30T05:04:13.107Z,24.77
2017-09-30T05:06:41.408Z,22.07
2017-09-30T05:09:08.913Z,23.43
2017-09-30T05:11:36.416Z,26.10
2017-09-30T05:14:03.945Z,23.57
2017-09-30T05:16:31.438Z,23.90
2017-09-30T05:18:58.962Z,25.60
2017-09-30T05:21:27.236Z,22.30
2017-09-30T05:23:55.545Z,24.63
2017-09-30T05:26:23.046Z,23.77
2017-09-30T05:28:50.548Z,21.70
2017-09-30T05:31:18.075Z,22.67
2017-09-30T05:33:45.587Z,23.47
2017-09-30T05:36:13.149Z,23.57
2017-09-30T05:38:40.649Z,25.83
2017-09-30T05:41:08.940Z,25.13
2017-09-30T05:43:37.198Z,26.70
2017-09-30T05:46:05.478Z,24.90
2017-09-30T05:48:33.006Z,24.27
2017-09-30T05:51:00.502Z,25.10
2017-09-30T05:53:28.794Z,22.83
2017-09-30T05:55:56.365Z,24.90
2017-09-30T05:58:23.887Z,26.37
2017-09-30T06:00:51.385Z,24.00
2017-09-30T06:03:18.939Z,23.73
2017-09-30T06:05:46.441Z,25.77
2017-09-30T06:08:13.933Z,24.53
2017-09-30T06:10:42.225Z,27.57
2017-09-30T06:13:09.719Z,25.50
2017-09-30T06:15:37.249Z,28.43
2017-09-30T06:18:04.744Z,26.57
2017-09-30T06:20:32.236Z,23.33
2017-09-30T06:23:00.525Z,21.80
2017-09-30T06:25:28.039Z,25.90
2017-09-30T06:27:55.572Z,27.27
2017-09-30T06:30:23.068Z,22.43
2017-09-30T06:32:50.596Z,26.00
2017-09-30T06:35:18.120Z,25.70
2017-09-30T06:37:45.650Z,25.70
2017-09-30T06:40:13.915Z,23.93
2017-09-30T06:42:41.456Z,25.77
2017-09-30T06:45:08.982Z,25.70
2017-09-30T06:47:36.537Z,26.27
2017-09-30T06:50:04.057Z,25.90
2017-09-30T06:52:32.321Z,28.93
2017-09-30T06:55:01.452Z,27.07
2017-09-30T06:57:28.957Z,24.90
2017-09-30T06:59:56.452Z,25.93
2017-09-30T07:02:24.741Z,31.00
2017-09-30T07:04:52.241Z,29.50
2017-09-30T07:07:19.785Z,37.40
2017-09-30T07:09:47.303Z,37.40
2017-09-30T07:12:15.592Z,38.90
2017-09-30T07:14:43.115Z,44.17
2017-09-30T07:17:10.657Z,41.10
2017-09-30T07:19:38.216Z,45.27
2017-09-30T07:22:05.714Z,49.50
2017-09-30T07:24:33.236Z,40.00
2017-09-30T07:27:00.757Z,44.60
2017-09-30T07:29:28.279Z,41.17
2017-09-30T07:31:56.557Z,28.40
2017-09-30T07:34:24.088Z,31.70
2017-09-30T07:36:51.636Z,28.90
2017-09-30T07:39:19.190Z,26.10
2017-09-30T07:41:46.738Z,28.07
2017-09-30T07:44:14.240Z,26.87
2017-09-30T07:46:42.532Z,25.60
2017-09-30T07:49:10.052Z,25.30
2017-09-30T07:51:37.584Z,26.33
2017-09-30T07:54:05.129Z,24.73
2017-09-30T07:56:32.686Z,24.50
2017-09-30T07:59:00.213Z,25.50
2017-09-30T08:01:28.477Z,23.50
2017-09-30T08:03:56.772Z,24.13
2017-09-30T08:06:24.282Z,22.30
2017-09-30T08:08:51.805Z,22.27
2017-09-30T08:11:19.305Z,23.47
2017-09-30T08:13:46.836Z,22.50
2017-09-30T08:16:14.369Z,21.20
2017-09-30T08:18:41.921Z,22.47
2017-09-30T08:21:09.413Z,21.53
2017-09-30T08:23:37.006Z,21.37
2017-09-30T08:26:05.304Z,26.00
2017-09-30T08:28:33.564Z,22.13
2017-09-30T08:31:01.976Z,23.23
2017-09-30T08:33:29.503Z,20.43
2017-09-30T08:35:57.802Z,22.60
2017-09-30T08:38:25.377Z,19.30
2017-09-30T08:40:52.872Z,18.97
2017-09-30T08:43:20.394Z,18.10
2017-09-30T08:45:47.893Z,17.07
2017-09-30T08:48:15.479Z,21.03
2017-09-30T08:50:43.876Z,17.13
2017-09-30T08:53:11.425Z,15.87
2017-09-30T08:55:38.939Z,17.73
2017-09-30T08:58:06.462Z,18.60
2017-09-30T09:00:34.000Z,19.37
2017-09-30T09:03:01.530Z,18.10
2017-09-30T09:05:29.830Z,16.93
2017-09-30T09:07:57.370Z,16.33
2017-09-30T09:10:25.692Z,13.13
2017-09-30T09:12:53.248Z,12.93
2017-09-30T09:15:20.804Z,13.97
2017-09-30T09:17:48.340Z,13.70
2017-09-30T09:20:15.852Z,13.37
2017-09-30T09:22:43.390Z,12.57
2017-09-30T09:25:10.896Z,12.00
2017-09-30T09:27:39.168Z,13.33
2017-09-30T09:30:07.459Z,12.73
2017-09-30T09:32:34.974Z,11.83
2017-09-30T09:35:02.503Z,10.40
2017-09-30T09:37:30.018Z,11.57
2017-09-30T09:39:58.313Z,13.00
2017-09-30T09:42:25.865Z,12.20
2017-09-30T09:44:53.420Z,13.33
2017-09-30T09:47:20.961Z,11.20
2017-09-30T09:49:49.253Z,12.20
2017-09-30T09:52:16.788Z,11.53
2017-09-30T09:54:44.292Z,12.17
2017-09-30T09:57:11.830Z,12.93
2017-09-30T09:59:39.373Z,12.10
2017-09-30T10:02:07.653Z,12.33
2017-09-30T10:04:35.948Z,12.07
2017-09-30T10:07:03.462Z,9.93
2017-09-30T10:09:31.164Z,10.20
2017-09-30T10:11:58.682Z,11.77
2017-09-30T10:14:26.199Z,11.33
2017-09-30T10:16:53.713Z,13.00
2017-09-30T10:19:21.985Z,13.00
2017-09-30T10:21:50.279Z,11.57
2017-09-30T10:24:17.781Z,11.33
2017-09-30T10:26:45.333Z,11.70
2017-09-30T10:29:12.842Z,10.77
2017-09-30T10:31:41.153Z,10.40
2017-09-30T10:34:08.668Z,12.33
2017-09-30T10:36:36.927Z,10.67
2017-09-30T10:39:04.482Z,10.30
2017-09-30T10:41:31.985Z,9.77
2017-09-30T10:44:00.308Z,11.00
2017-09-30T10:46:27.895Z,9.00
2017-09-30T10:48:56.153Z,9.67
2017-09-30T10:51:23.693Z,9.90
2017-09-30T10:53:51.198Z,10.67
2017-09-30T10:56:19.483Z,9.73
2017-09-30T10:58:46.978Z,8.67
2017-09-30T11:01:14.473Z,9.37
2017-09-30T11:03:42.798Z,8.57
2017-09-30T11:06:10.292Z,8.23
2017-09-30T11:08:37.862Z,8.97
2017-09-30T11:11:06.136Z,7.30
2017-09-30T11:13:34.445Z,6.60
2017-09-30T11:16:01.944Z,6.47
2017-09-30T11:18:29.437Z,6.23
2017-09-30T11:20:57.718Z,5.53
2017-09-30T11:23:25.228Z,5.60
2017-09-30T11:25:52.756Z,6.60
2017-09-30T11:28:20.255Z,5.90
2017-09-30T11:30:47.796Z,6.10
2017-09-30T11:33:15.294Z,8.33
2017-09-30T11:35:43.854Z,6.90
2017-09-30T11:38:12.890Z,6.83
2017-09-30T11:40:40.398Z,7.10
2017-09-30T11:43:07.945Z,7.07
2017-09-30T11:45:35.458Z,7.17
2017-09-30T11:48:03.717Z,5.63
2017-09-30T11:50:32.025Z,6.00
2017-09-30T11:52:59.522Z,6.27
2017-09-30T11:55:27.050Z,6.37
2017-09-30T11:57:54.549Z,5.27
2017-09-30T12:00:22.835Z,5.23
2017-09-30T12:02:51.189Z,7.13
2017-09-30T12:05:18.690Z,6.30
2017-09-30T12:07:46.218Z,7.00
2017-09-30T12:10:13.709Z,8.60
2017-09-30T12:12:41.243Z,6.40
2017-09-30T12:15:08.756Z,7.63
2017-09-30T12:17:36.282Z,6.10
2017-09-30T12:20:03.803Z,5.60
2017-09-30T12:22:31.312Z,7.77
2017-09-30T12:24:58.860Z,5.90
2017-09-30T12:27:26.427Z,6.10
2017-09-30T12:29:53.952Z,5.60
2017-09-30T12:32:22.218Z,9.70
2017-09-30T12:34:49.740Z,6.13
2017-09-30T12:37:17.249Z,6.40
2017-09-30T12:39:45.557Z,5.90
2017-09-30T12:42:13.060Z,7.07
2017-09-30T12:44:40.588Z,7.13
2017-09-30T12:47:08.222Z,7.10
2017-09-30T12:49:35.716Z,8.20
2017-09-30T12:52:03.241Z,10.00
2017-09-30T12:54:30.752Z,7.83
2017-09-30T12:56:58.289Z,8.70
2017-09-30T12:59:25.809Z,7.30
2017-09-30T13:01:53.300Z,7.27
2017-09-30T13:04:20.820Z,8.43
2017-09-30T13:06:48.318Z,7.77
2017-09-30T13:09:15.838Z,7.73
2017-09-30T13:11:43.339Z,8.37
2017-09-30T13:14:10.869Z,7.40
2017-09-30T13:16:38.377Z,6.40
2017-09-30T13:19:05.901Z,7.63
2017-09-30T13:21:33.398Z,8.40
2017-09-30T13:24:01.672Z,7.93
2017-09-30T13:26:29.963Z,8.43
2017-09-30T13:28:57.459Z,7.47
2017-09-30T13:31:24.976Z,7.97
2017-09-30T13:33:52.476Z,10.93
2017-09-30T13:36:19.998Z,9.50
2017-09-30T13:38:47.525Z,9.73
2017-09-30T13:41:15.019Z,8.70
2017-09-30T13:43:42.505Z,9.90
2017-09-30T13:46:10.042Z,9.77
2017-09-30T13:48:37.576Z,9.53
2017-09-30T13:51:05.073Z,10.80
2017-09-30T13:53:32.601Z,10.10
2017-09-30T13:56:00.121Z,9.63
2017-09-30T13:58:27.669Z,9.37
2017-09-30T14:00:55.196Z,9.67
2017-09-30T14:03:22.709Z,8.30
2017-09-30T14:05:50.989Z,9.23
2017-09-30T14:08:19.247Z,9.20
2017-09-30T14:10:46.773Z,10.53
2017-09-30T14:13:14.318Z,10.70
2017-09-30T14:15:41.900Z,10.60
2017-09-30T14:18:09.443Z,10.40
2017-09-30T14:20:36.964Z,9.13
2017-09-30T14:23:05.268Z,10.17
2017-09-30T14:25:32.764Z,9.97
2017-09-30T14:28:00.300Z,9.17
2017-09-30T14:30:27.819Z,11.77
2017-09-30T14:32:55.343Z,12.23
2017-09-30T14:35:22.874Z,9.87
2017-09-30T14:37:50.373Z,10.70
2017-09-30T14:40:18.658Z,9.50
2017-09-30T14:42:46.958Z,11.13
2017-09-30T14:45:14.473Z,11.37
2017-09-30T14:47:42.162Z,9.90
2017-09-30T14:50:09.670Z,11.87
2017-09-30T14:52:37.197Z,10.90
2017-09-30T14:55:04.697Z,10.67
2017-09-30T14:57:32.209Z,11.27
2017-09-30T14:59:59.732Z,9.73
2017-09-30T15:02:28.012Z,17.33
2017-09-30T15:04:55.557Z,8.73
2017-09-30T15:07:23.862Z,11.40
2017-09-30T15:09:51.373Z,11.07
2017-09-30T15:12:18.902Z,9.77
2017-09-30T15:14:46.398Z,8.50
2017-09-30T15:17:13.916Z,7.17
2017-09-30T15:19:41.424Z,7.23
2017-09-30T15:22:10.186Z,5.97
2017-09-30T15:24:37.714Z,4.83
2017-09-30T15:27:05.213Z,4.67
2017-09-30T15:29:32.704Z,4.87
2017-09-30T15:32:00.246Z,4.97
2017-09-30T15:34:28.575Z,4.80
2017-09-30T15:36:56.115Z,4.27
2017-09-30T15:39:23.609Z,4.43
2017-09-30T15:41:51.901Z,4.00
2017-09-30T15:44:19.439Z,4.20
2017-09-30T15:46:46.937Z,4.27
2017-09-30T15:49:15.236Z,4.40
2017-09-30T15:51:42.781Z,4.00
2017-09-30T15:54:10.332Z,5.30
2017-09-30T15:56:37.867Z,5.27
2017-09-30T15:59:05.369Z,4.63
2017-09-30T16:01:32.876Z,3.57
2017-09-30T16:04:00.444Z,6.10
2017-09-30T16:06:28.706Z,3.30
2017-09-30T16:08:56.232Z,4.87
2017-09-30T16:11:23.749Z,2.83
2017-09-30T16:13:51.284Z,3.20
2017-09-30T16:16:18.812Z,2.77
2017-09-30T16:18:46.355Z,3.07
2017-09-30T16:21:13.903Z,2.03
2017-09-30T16:23:41.433Z,3.50
2017-09-30T16:26:08.989Z,2.50
2017-09-30T16:28:37.286Z,1.90
2017-09-30T16:31:04.824Z,2.17
2017-09-30T16:33:33.129Z,4.43
2017-09-30T16:36:00.665Z,3.10
2017-09-30T16:38:28.205Z,2.43
2017-09-30T16:40:56.492Z,2.03
2017-09-30T16:43:24.767Z,2.37
2017-09-30T16:45:53.074Z,1.80
2017-09-30T16:48:20.580Z,1.40
2017-09-30T16:50:48.136Z,2.17
2017-09-30T16:53:16.422Z,2.53
2017-09-30T16:55:44.699Z,2.30
2017-09-30T16:58:13.010Z,2.70
2017-09-30T17:00:40.512Z,2.30
2017-09-30T17:03:09.512Z,2.20
2017-09-30T17:05:37.033Z,3.40
2017-09-30T17:08:04.555Z,2.10
2017-09-30T17:10:32.109Z,2.37
2017-09-30T17:13:00.407Z,2.07
2017-09-30T17:15:27.933Z,2.80
2017-09-30T17:17:56.204Z,1.50
2017-09-30T17:20:23.766Z,2.00
2017-09-30T17:22:52.080Z,3.23
2017-09-30T17:25:19.589Z,2.33
2017-09-30T17:27:47.093Z,4.53
2017-09-30T17:30:14.657Z,3.13
2017-09-30T17:32:42.166Z,1.67
2017-09-30T17:35:11.204Z,2.23
2017-09-30T17:37:38.728Z,2.03
2017-09-30T17:40:07.016Z,3.30
2017-09-30T17:42:34.534Z,2.07
2017-09-30T17:45:02.051Z,3.20
2017-09-30T17:47:29.591Z,2.57
2017-09-30T17:49:57.097Z,2.93
2017-09-30T17:52:24.610Z,2.10
2017-09-30T17:54:52.122Z,2.97
2017-09-30T17:57:19.673Z,2.27
2017-09-30T17:59:47.185Z,2.20
2017-09-30T18:02:14.684Z,2.80
2017-09-30T18:04:42.229Z,2.20
2017-09-30T18:07:09.724Z,2.40
2017-09-30T18:09:37.228Z,2.60
2017-09-30T18:12:04.780Z,2.33
2017-09-30T18:14:32.319Z,1.83
2017-09-30T18:16:59.917Z,2.50
2017-09-30T18:19:28.282Z,3.20
2017-09-30T18:21:55.830Z,1.97
2017-09-30T18:24:23.329Z,3.07
2017-09-30T18:26:50.827Z,2.50
2017-09-30T18:29:19.136Z,2.20
2017-09-30T18:31:46.656Z,4.50
2017-09-30T18:34:15.046Z,2.33
2017-09-30T18:36:42.578Z,2.10
2017-09-30T18:39:10.144Z,2.63
2017-09-30T18:41:38.413Z,2.10
2017-09-30T18:44:05.991Z,2.20
2017-09-30T18:46:34.268Z,3.87
2017-09-30T18:49:03.010Z,2.00
2017-09-30T18:51:30.537Z,2.07
2017-09-30T18:53:58.045Z,2.53
2017-09-30T18:56:25.629Z,1.93
2017-09-30T18:58:53.130Z,1.80
2017-09-30T19:01:20.663Z,2.57
2017-09-30T19:03:48.179Z,4.37
2017-09-30T19:06:15.732Z,3.27
2017-09-30T19:08:43.259Z,2.50
2017-09-30T19:11:10.758Z,2.07
2017-09-30T19:13:39.047Z,2.63
2017-09-30T19:16:07.336Z,2.60
2017-09-30T19:18:34.861Z,4.40
2017-09-30T19:21:02.443Z,2.50
2017-09-30T19:23:29.994Z,2.57
2017-09-30T19:25:58.275Z,2.27
2017-09-30T19:28:26.549Z,2.10
2017-09-30T19:30:54.858Z,2.20
2017-09-30T19:33:22.468Z,2.73
2017-09-30T19:35:50.790Z,3.27
2017-09-30T19:38:18.317Z,2.13
2017-09-30T19:40:46.647Z,1.60
2017-09-30T19:43:14.174Z,5.33
2017-09-30T19:45:41.727Z,4.77
2017-09-30T19:48:09.260Z,4.10
2017-09-30T19:50:37.533Z,3.10
2017-09-30T19:53:05.824Z,2.37
2017-09-30T19:55:33.340Z,2.13
2017-09-30T19:58:00.881Z,2.23
2017-09-30T20:00:28.391Z,2.70
2017-09-30T20:02:56.721Z,3.80
2017-09-30T20:05:24.371Z,2.20
2017-09-30T20:07:51.908Z,3.13
2017-09-30T20:10:19.445Z,3.27
2017-09-30T20:12:47.754Z,2.20
2017-09-30T20:15:15.278Z,1.77
2017-09-30T20:17:43.605Z,3.00
2017-09-30T20:20:11.342Z,4.43
2017-09-30T20:22:38.878Z,4.03
2017-09-30T20:25:07.157Z,3.30
2017-09-30T20:27:34.687Z,1.90
2017-09-30T20:30:02.205Z,3.27
2017-09-30T20:32:29.744Z,2.13
2017-09-30T20:34:57.293Z,2.53
2017-09-30T20:37:24.786Z,1.97
2017-09-30T20:39:52.312Z,1.87
2017-09-30T20:42:19.830Z,2.53
2017-09-30T20:44:48.883Z,3.50
2017-09-30T20:47:16.410Z,2.23
2017-09-30T20:49:43.923Z,2.50
2017-09-30T20:52:11.451Z,1.60
2017-09-30T20:54:38.950Z,1.53
2017-09-30T20:57:07.256Z,1.77
2017-09-30T20:59:34.794Z,2.07
2017-09-30T21:02:02.316Z,2.43
2017-09-30T21:04:29.857Z,2.60
2017-09-30T21:06:57.368Z,2.67
2017-09-30T21:09:25.632Z,4.50
2017-09-30T21:11:53.196Z,2.40
2017-09-30T21:14:20.978Z,2.90
2017-09-30T21:16:49.340Z,2.20
2017-09-30T21:19:17.736Z,2.37
2017-09-30T21:21:45.438Z,2.73
2017-09-30T21:24:13.295Z,2.97
2017-09-30T21:26:40.940Z,4.20
2017-09-30T21:29:08.596Z,3.60
2017-09-30T21:31:37.332Z,3.43
2017-09-30T21:34:05.957Z,3.53
2017-09-30T21:36:33.639Z,6.03
2017-09-30T21:39:01.449Z,3.50
2017-09-30T21:41:29.847Z,3.83
2017-09-30T21:43:57.460Z,3.17
2017-09-30T21:46:25.080Z,3.40
2017-09-30T21:48:52.638Z,3.40
2017-09-30T21:51:21.013Z,3.70
2017-09-30T21:53:49.337Z,3.17
2017-09-30T21:56:16.836Z,3.50
2017-09-30T21:58:45.143Z,3.10
2017-09-30T22:01:12.656Z,5.17
2017-09-30T22:03:40.184Z,4.10
2017-09-30T22:06:07.684Z,3.77
2017-09-30T22:08:35.985Z,5.80
2017-09-30T22:11:03.500Z,4.43
2017-09-30T22:13:31.036Z,4.30
2017-09-30T22:15:58.561Z,5.03
2017-09-30T22:18:26.056Z,3.50
2017-09-30T22:20:53.600Z,3.40
2017-09-30T22:23:21.112Z,4.10
2017-09-30T22:25:49.430Z,4.70
2017-09-30T22:28:16.922Z,5.13
2017-09-30T22:30:45.195Z,5.33
2017-09-30T22:33:12.720Z,3.47
2017-09-30T22:35:40.228Z,3.10
2017-09-30T22:38:08.556Z,2.93
2017-09-30T22:40:36.067Z,3.97
2017-09-30T22:43:04.364Z,3.00
2017-09-30T22:45:31.857Z,3.07
2017-09-30T22:47:59.371Z,3.73
2017-09-30T22:50:26.885Z,5.20
2017-09-30T22:52:54.391Z,4.40
2017-09-30T22:55:21.931Z,3.80
2017-09-30T22:57:49.464Z,3.00
2017-09-30T23:00:17.788Z,3.47
2017-09-30T23:02:45.313Z,3.47
2017-09-30T23:05:13.600Z,3.60
2017-09-30T23:07:41.867Z,3.03
2017-09-30T23:10:10.154Z,4.83
2017-09-30T23:12:38.424Z,3.80
2017-09-30T23:15:06.730Z,3.33
2017-09-30T23:17:34.250Z,2.80
2017-09-30T23:20:02.626Z,3.43
2017-09-30T23:22:30.895Z,2.57
2017-09-30T23:24:58.393Z,2.77
2017-09-30T23:27:25.937Z,2.43
2017-09-30T23:29:53.446Z,3.03
2017-09-30T23:32:20.965Z,3.40
2017-09-30T23:34:48.473Z,2.90
2017-09-30T23:37:16.729Z,4.53
2017-09-30T23:39:44.249Z,2.43
2017-09-30T23:42:11.756Z,3.00
2017-09-30T23:44:40.788Z,1.93
2017-09-30T23:47:09.048Z,3.00
2017-09-30T23:49:37.332Z,2.43
2017-09-30T23:52:05.598Z,2.03
2017-09-30T23:54:33.890Z,2.50
2017-09-30T23:57:01.388Z,1.90
2017-09-30T23:59:28.889Z,4.03
